Time;durP1;ratioP1;P1;durP2;ratioP2;P2;SDS_P1;SDS_P2;PMS_P1;PMS_P2;Temp;Humidity;BMP_temperature;BMP_pressure;BME280_temperature;BME280_humidity;BME280_pressure;Samples;Min_cycle;Max_cycle;Signal;HPM_P1;HPM_P2
2022/04/13 00:02:22;;;;;;;10.07;4.30;;;;;;;14.73;57.71;101040.63;5008018;28;20060;-74
2022/04/13 00:04:47;;;;;;;10.25;4.38;;;;;;;14.72;57.85;101049.44;5006742;28;20033;-74
2022/04/13 00:07:13;;;;;;;8.75;3.67;;;;;;;14.70;57.63;101051.38;5008091;28;20490;-74
2022/04/13 00:09:38;;;;;;;11.50;4.13;;;;;;;14.70;57.62;101051.38;5008536;28;20370;-74
2022/04/13 00:12:04;;;;;;;10.07;3.72;;;;;;;14.63;58.26;101055.56;5022024;28;20052;-74
2022/04/13 00:14:30;;;;;;;10.77;4.15;;;;;;;14.63;58.41;101055.56;5027875;28;20060;-74
2022/04/13 00:16:55;;;;;;;9.20;4.18;;;;;;;14.59;58.60;101049.78;5027569;28;20026;-74
2022/04/13 00:19:21;;;;;;;8.80;4.10;;;;;;;14.63;58.23;101054.75;5027770;28;20087;-74
2022/04/13 00:21:48;;;;;;;11.20;4.35;;;;;;;14.56;58.09;101044.03;5027416;28;20425;-74
2022/04/13 00:24:13;;;;;;;11.30;4.40;;;;;;;14.54;58.53;101057.25;5027031;28;20033;-74
2022/04/13 00:26:39;;;;;;;9.32;4.30;;;;;;;14.50;58.05;101068.09;5013036;28;20072;-74
2022/04/13 00:29:04;;;;;;;10.07;4.00;;;;;;;14.45;58.86;101057.25;5008670;28;20034;-74
2022/04/13 00:31:30;;;;;;;13.25;4.65;;;;;;;14.40;58.79;101062.09;5006818;28;20366;-73
2022/04/13 00:33:55;;;;;;;11.45;4.80;;;;;;;14.35;58.87;101058.13;5008007;28;20030;-74
2022/04/13 00:36:20;;;;;;;12.35;4.82;;;;;;;14.32;58.77;101058.41;5005922;28;20026;-74
2022/04/13 00:38:46;;;;;;;10.68;4.50;;;;;;;14.29;58.90;101058.69;5007622;28;20068;-74
2022/04/13 00:41:12;;;;;;;10.88;5.00;;;;;;;14.19;59.45;101068.34;5020078;28;20061;-73
2022/04/13 00:43:38;;;;;;;13.40;4.90;;;;;;;14.20;59.08;101075.19;5027523;28;20029;-72
2022/04/13 00:46:03;;;;;;;10.23;4.63;;;;;;;14.17;59.24;101069.47;5027624;28;20071;-74
2022/04/13 00:48:36;;;;;;;9.10;4.72;;;;;;;14.13;59.05;101074.13;5027342;28;20079;-74
2022/04/13 00:51:03;;;;;;;13.43;4.90;;;;;;;14.06;59.32;101073.88;5026972;28;20050;-74
2022/04/13 00:53:30;;;;;;;13.35;4.95;;;;;;;14.01;59.56;101080.47;5015597;28;20018;-74
2022/04/13 00:55:58;;;;;;;12.10;4.72;;;;;;;13.99;59.63;101082.38;5007836;28;20084;-74
2022/04/13 00:58:27;;;;;;;10.02;4.60;;;;;;;13.85;60.84;101088.88;5007673;28;20076;-76
2022/04/13 01:00:54;;;;;;;10.57;5.22;;;;;;;13.86;60.27;101087.09;5007312;28;20486;-73
2022/04/13 01:03:22;;;;;;;11.05;5.32;;;;;;;13.82;60.02;101095.22;5007293;28;20038;-74
2022/04/13 01:05:49;;;;;;;13.35;5.28;;;;;;;13.76;60.71;101087.09;5007329;28;20142;-74
2022/04/13 01:08:17;;;;;;;14.32;5.53;;;;;;;13.73;60.71;101093.44;5008044;28;20125;-74
2022/04/13 01:10:43;;;;;;;10.18;4.95;;;;;;;13.78;60.36;101096.44;5024597;28;20030;-72
2022/04/13 01:13:09;;;;;;;12.18;5.10;;;;;;;13.73;60.50;101093.44;5029739;28;20033;-74
2022/04/13 01:15:35;;;;;;;12.25;5.35;;;;;;;13.68;61.04;101100.84;5028353;28;20033;-74
2022/04/13 01:18:01;;;;;;;10.57;5.72;;;;;;;13.61;61.08;101104.97;5031092;28;20029;-74
2022/04/13 01:20:26;;;;;;;14.15;5.82;;;;;;;13.52;61.61;101108.38;5046277;28;20052;-73
2022/04/13 01:22:52;;;;;;;10.45;5.20;;;;;;;13.46;62.05;101111.53;5026073;28;20466;-74
2022/04/13 01:25:17;;;;;;;10.85;5.60;;;;;;;13.46;61.98;101111.53;5011157;28;20100;-74
2022/04/13 01:27:42;;;;;;;14.43;5.65;;;;;;;13.40;62.36;101118.13;5009638;28;20471;-73
2022/04/13 01:30:09;;;;;;;11.25;5.88;;;;;;;13.39;62.38;101131.28;5009363;28;20029;-74
2022/04/13 01:32:35;;;;;;;10.55;5.57;;;;;;;13.34;62.97;101128.25;5009756;28;20530;-74
2022/04/13 01:35:00;;;;;;;11.85;5.80;;;;;;;13.34;62.65;101131.69;5012157;28;20033;-74
2022/04/13 01:37:26;;;;;;;12.65;5.80;;;;;;;13.20;63.42;101132.88;5010458;28;20030;-74
2022/04/13 01:39:51;;;;;;;12.55;6.45;;;;;;;13.25;63.19;101145.53;5009629;28;20112;-74
2022/04/13 01:42:17;;;;;;;13.38;6.30;;;;;;;13.19;63.71;101139.06;5010737;28;20036;-74
2022/04/13 01:44:42;;;;;;;12.88;6.25;;;;;;;13.11;63.63;101133.69;5011075;28;20029;-74
2022/04/13 01:47:09;;;;;;;11.73;6.70;;;;;;;13.13;63.86;101146.56;5010632;28;20045;-74
2022/04/13 01:49:38;;;;;;;11.77;6.82;;;;;;;13.02;64.47;101155.31;5011738;28;20374;-75
2022/04/13 01:52:07;;;;;;;12.63;7.03;;;;;;;13.06;64.96;101161.06;5006674;28;20101;-74
2022/04/13 01:54:33;;;;;;;10.27;7.20;;;;;;;12.93;66.01;101156.94;5011013;28;20026;-74
2022/04/13 01:56:58;;;;;;;13.45;6.93;;;;;;;12.94;65.64;101162.97;5010813;28;20367;-74
2022/04/13 01:59:24;;;;;;;12.50;7.40;;;;;;;12.93;66.40;101166.53;5010668;28;20045;-74
2022/04/13 02:01:50;;;;;;;13.45;7.35;;;;;;;12.93;66.52;101163.91;5010465;28;20461;-73
2022/04/13 02:04:25;;;;;;;12.52;7.53;;;;;;;12.92;66.26;101164.88;5009189;28;20095;-74
2022/04/13 02:06:51;;;;;;;14.85;8.07;;;;;;;12.89;67.60;101172.94;5011208;28;20022;-76
2022/04/13 02:09:17;;;;;;;12.93;8.20;;;;;;;12.84;67.68;101169.91;5009997;28;20052;-74
2022/04/13 02:11:43;;;;;;;11.95;7.80;;;;;;;12.83;67.30;101170.88;5010215;28;20030;-75
2022/04/13 02:14:09;;;;;;;16.25;9.05;;;;;;;12.80;68.02;101166.75;5010151;28;20040;-74
2022/04/13 02:16:35;;;;;;;13.98;8.80;;;;;;;12.73;67.82;101168.22;5010012;28;20022;-74
2022/04/13 02:19:00;;;;;;;13.05;8.90;;;;;;;12.74;67.59;101173.31;5010122;28;20070;-74
2022/04/13 02:21:26;;;;;;;12.93;8.40;;;;;;;12.77;68.39;101178.25;5008703;28;20449;-73
2022/04/13 02:23:51;;;;;;;13.35;8.95;;;;;;;12.72;68.80;101175.19;5009842;28;20029;-74
2022/04/13 02:26:19;;;;;;;14.90;8.90;;;;;;;12.73;69.23;101179.47;5010142;28;20470;-74
2022/04/13 02:28:45;;;;;;;13.30;9.18;;;;;;;12.67;69.04;101177.41;5008854;28;20104;-73
2022/04/13 02:31:11;;;;;;;15.07;9.50;;;;;;;12.67;68.95;101182.59;5009504;28;20029;-74
2022/04/13 02:33:36;;;;;;;15.10;9.43;;;;;;;12.64;69.13;101182.03;5008072;28;20025;-74
2022/04/13 02:36:01;;;;;;;15.10;9.48;;;;;;;12.65;69.26;101187.09;5009637;28;20040;-73
2022/04/13 02:38:27;;;;;;;14.70;10.18;;;;;;;12.53;69.73;101175.13;5009728;28;20423;-73
2022/04/13 02:40:52;;;;;;;13.00;9.55;;;;;;;12.50;69.89;101175.34;5009672;28;20029;-74
2022/04/13 02:43:18;;;;;;;14.65;10.35;;;;;;;12.57;70.00;101197.34;5016794;28;20033;-74
2022/04/13 02:45:44;;;;;;;14.55;10.02;;;;;;;12.49;70.12;101187.53;5029567;28;20075;-74
2022/04/13 02:48:09;;;;;;;15.70;10.38;;;;;;;12.55;70.22;101199.22;5029490;28;20021;-72
2022/04/13 02:50:35;;;;;;;14.90;9.98;;;;;;;12.61;69.09;101198.69;5028945;28;20477;-74
2022/04/13 02:53:00;;;;;;;14.18;9.82;;;;;;;12.62;69.23;101189.97;5009306;28;20478;-74
2022/04/13 02:55:25;;;;;;;16.50;10.02;;;;;;;12.55;70.16;101191.41;5009317;28;20465;-74
2022/04/13 02:57:51;;;;;;;16.20;10.43;;;;;;;12.60;69.08;101197.06;5009902;28;20029;-74
2022/04/13 03:00:17;;;;;;;15.25;9.85;;;;;;;12.56;69.77;101200.03;5008769;28;20410;-73
2022/04/13 03:02:44;;;;;;;17.58;10.05;;;;;;;12.53;70.32;101208.13;5009057;28;20060;-74
2022/04/13 03:05:10;;;;;;;16.38;10.35;;;;;;;12.54;70.50;101218.41;5008613;28;20025;-72
2022/04/13 03:07:36;;;;;;;16.27;9.52;;;;;;;12.51;69.94;101217.84;5011634;28;20096;-74
2022/04/13 03:10:03;;;;;;;15.73;10.23;;;;;;;12.43;70.79;101208.88;5029182;28;20029;-74
2022/04/13 03:12:28;;;;;;;16.13;10.18;;;;;;;12.44;70.63;101212.31;5028727;28;20489;-74
2022/04/13 03:14:54;;;;;;;14.85;10.27;;;;;;;12.44;70.78;101214.91;5023980;28;20030;-74
2022/04/13 03:17:19;;;;;;;16.58;11.20;;;;;;;12.38;71.18;101207.59;5012906;28;20465;-74
2022/04/13 03:19:45;;;;;;;15.73;10.80;;;;;;;12.38;70.71;101202.41;5020789;28;20040;-73
2022/04/13 03:22:10;;;;;;;16.50;11.45;;;;;;;12.40;70.59;101213.53;5008453;28;20029;-74
2022/04/13 03:24:35;;;;;;;16.55;11.45;;;;;;;12.26;71.65;101203.44;5008918;28;20030;-73
2022/04/13 03:27:01;;;;;;;13.18;11.55;;;;;;;12.35;70.79;101200.91;5008719;28;20077;-75
2022/04/13 03:29:26;;;;;;;14.07;11.52;;;;;;;12.37;71.05;101212.00;5007269;28;20125;-74
2022/04/13 03:31:51;;;;;;;17.13;11.60;;;;;;;12.24;70.84;101206.16;5008622;28;20092;-74
2022/04/13 03:34:20;;;;;;;16.25;11.15;;;;;;;12.17;71.92;101211.03;5014342;28;20029;-74
2022/04/13 03:36:48;;;;;;;;;;;;;;;12.44;69.24;101213.16;5028999;28;20037;-72
2022/04/13 03:39:14;;;;;;;;;;;;;;;12.45;68.32;101208.78;5028870;28;19931;-73
2022/04/13 03:41:40;;;;;;;18.10;12.75;;;;;;;12.20;71.39;101210.78;5028135;28;20346;-72
2022/04/13 03:44:05;;;;;;;15.88;11.80;;;;;;;12.19;71.12;101209.13;5028199;28;20380;-74
2022/04/13 03:46:32;;;;;;;15.52;12.25;;;;;;;12.08;72.05;101206.59;5007528;28;20026;-74
2022/04/13 03:48:57;;;;;;;15.10;12.50;;;;;;;11.99;72.41;101217.75;4994178;28;20794;-74
2022/04/13 03:51:23;;;;;;;18.75;12.20;;;;;;;12.06;72.20;101224.09;4986600;28;20022;-74
2022/04/13 03:53:48;;;;;;;16.15;12.48;;;;;;;11.91;72.44;101225.34;4986686;28;20407;-74
2022/04/13 03:56:14;;;;;;;16.02;12.10;;;;;;;11.90;71.79;101224.50;4986629;28;20032;-74
2022/04/13 03:58:42;;;;;;;16.23;13.05;;;;;;;11.86;72.90;101232.66;4988593;28;20022;-75
2022/04/13 04:01:09;;;;;;;18.80;13.32;;;;;;;11.81;73.27;101229.59;4989990;28;20503;-74
2022/04/13 04:03:35;;;;;;;15.82;13.10;;;;;;;11.85;73.19;101231.03;4988002;28;20041;-74
2022/04/13 04:06:01;;;;;;;17.00;13.75;;;;;;;11.86;72.40;101240.47;4988698;28;20030;-74
2022/04/13 04:08:28;;;;;;;18.42;14.10;;;;;;;11.79;73.09;101241.88;4985388;28;20038;-74
2022/04/13 04:10:55;;;;;;;16.48;14.13;;;;;;;11.74;73.49;101239.66;4996354;28;20030;-73
2022/04/13 04:13:21;;;;;;;17.67;14.05;;;;;;;11.72;73.13;101235.53;5003806;28;20030;-72
2022/04/13 04:15:46;;;;;;;18.48;14.70;;;;;;;11.59;73.38;101228.72;5010116;28;20038;-73
2022/04/13 04:18:11;;;;;;;18.80;14.18;;;;;;;11.58;73.19;101240.03;5008954;28;20040;-74
2022/04/13 04:20:37;;;;;;;18.63;14.55;;;;;;;11.57;73.84;101243.59;5011134;28;20092;-74
2022/04/13 04:23:02;;;;;;;17.88;13.70;;;;;;;11.48;73.60;101249.53;5010399;28;20029;-73
2022/04/13 04:25:28;;;;;;;17.15;14.13;;;;;;;11.45;73.46;101239.34;4989622;28;20057;-74
2022/04/13 04:27:56;;;;;;;15.95;13.77;;;;;;;11.34;74.05;101252.34;4988802;28;20023;-75
2022/04/13 04:30:22;;;;;;;16.30;14.55;;;;;;;11.38;73.92;101249.41;4989105;28;20379;-75
2022/04/13 04:32:50;;;;;;;16.48;14.48;;;;;;;11.26;74.09;101262.53;5000814;28;20030;-75
2022/04/13 04:35:16;;;;;;;;;;;;;;;11.52;71.90;101260.47;5005993;28;20080;-74
2022/04/13 04:37:41;;;;;;;19.65;14.90;;;;;;;11.23;74.48;101262.75;5001259;28;19916;-74
2022/04/13 04:40:07;;;;;;;17.55;14.98;;;;;;;11.27;73.87;101266.78;5005924;28;20061;-73
2022/04/13 04:42:46;;;;;;;18.48;15.18;;;;;;;11.30;73.66;101266.53;5009368;28;20026;-74
2022/04/13 04:45:13;;;;;;;19.33;15.77;;;;;;;11.33;74.36;101261.91;5010166;28;20029;-74
2022/04/13 04:47:39;;;;;;;18.63;16.00;;;;;;;11.38;74.85;101270.19;4997813;28;20069;-74
2022/04/13 04:50:05;;;;;;;18.38;15.48;;;;;;;11.39;74.38;101260.63;4988648;28;20026;-75
2022/04/13 04:52:31;;;;;;;20.15;15.65;;;;;;;11.43;74.49;101275.03;4989448;28;20033;-74
2022/04/13 04:54:58;;;;;;;18.50;15.50;;;;;;;11.37;75.51;101284.13;4990328;28;20114;-74
2022/04/13 04:57:24;;;;;;;17.83;14.90;;;;;;;11.39;75.45;101286.59;4988601;28;20447;-75
2022/04/13 04:59:52;;;;;;;19.15;15.57;;;;;;;11.35;75.92;101279.97;4988120;28;20037;-74
2022/04/13 05:02:17;;;;;;;19.83;15.32;;;;;;;11.35;75.65;101290.34;5000437;28;20049;-74
2022/04/13 05:04:43;;;;;;;19.35;14.73;;;;;;;11.40;75.21;101288.22;5025801;28;20358;-74
2022/04/13 05:07:08;;;;;;;19.10;15.57;;;;;;;11.43;75.18;101295.81;5007867;28;20490;-74
2022/04/13 05:09:33;;;;;;;19.20;15.70;;;;;;;11.35;76.49;101301.56;4998627;28;20518;-75
2022/04/13 05:11:58;;;;;;;18.52;14.98;;;;;;;11.39;76.34;101300.41;4985018;28;20396;-74
2022/04/13 05:14:25;;;;;;;18.50;15.27;;;;;;;11.36;77.10;101308.44;4969510;28;20030;-74
2022/04/13 05:16:50;;;;;;;19.25;15.43;;;;;;;11.36;76.37;101312.81;5006179;28;20053;-74
2022/04/13 05:19:16;;;;;;;19.85;15.20;;;;;;;11.37;77.62;101314.47;4995293;28;20065;-75
2022/04/13 05:21:42;;;;;;;17.50;14.68;;;;;;;11.35;77.20;101326.72;4994806;28;20406;-74
2022/04/13 05:24:07;;;;;;;19.25;15.07;;;;;;;11.34;76.86;101335.47;5006860;28;20034;-75
2022/04/13 05:26:33;;;;;;;18.17;14.52;;;;;;;11.45;75.92;101332.88;5008947;28;20427;-75
2022/04/13 05:28:58;;;;;;;17.92;15.35;;;;;;;11.47;76.98;101332.75;5008684;28;20054;-75
2022/04/13 05:31:24;;;;;;;18.42;14.35;;;;;;;11.53;75.86;101333.13;4994236;28;20113;-75
2022/04/13 05:33:49;;;;;;;18.45;14.82;;;;;;;11.51;76.94;101342.78;5007097;28;20482;-75
2022/04/13 05:36:14;;;;;;;16.52;13.93;;;;;;;11.50;77.54;101333.34;5006608;28;20041;-75
2022/04/13 05:38:42;;;;;;;17.38;13.77;;;;;;;11.56;76.43;101334.63;4999505;28;20027;-75
2022/04/13 05:41:08;;;;;;;18.42;15.05;;;;;;;11.53;77.27;101338.31;4986901;28;20066;-74
2022/04/13 05:43:34;;;;;;;18.15;14.68;;;;;;;11.53;77.37;101338.31;4986158;28;20046;-75
2022/04/13 05:46:00;;;;;;;18.35;14.57;;;;;;;11.50;77.61;101341.13;5010534;28;20103;-75
2022/04/13 05:48:25;;;;;;;17.45;14.02;;;;;;;11.59;76.80;101347.41;5004595;28;20076;-75
2022/04/13 05:50:51;;;;;;;19.17;13.88;;;;;;;11.62;76.64;101342.78;4989416;28;20371;-73
2022/04/13 05:53:16;;;;;;;18.05;14.75;;;;;;;11.60;77.84;101356.84;4986054;28;20023;-75
2022/04/13 05:55:42;;;;;;;16.92;13.63;;;;;;;11.67;76.95;101361.44;4992129;28;20418;-75
2022/04/13 05:58:07;;;;;;;17.23;14.20;;;;;;;11.73;77.25;101369.72;4989607;28;20030;-73
2022/04/13 06:00:32;;;;;;;18.42;14.98;;;;;;;11.69;78.13;101367.31;4989069;28;20067;-75
2022/04/13 06:02:57;;;;;;;19.92;13.82;;;;;;;11.72;78.21;101366.28;4990535;28;20066;-75
2022/04/13 06:05:24;;;;;;;16.67;13.60;;;;;;;11.77;77.74;101368.53;4990520;28;20109;-74
2022/04/13 06:07:49;;;;;;;17.63;13.40;;;;;;;11.84;77.31;101374.94;4990307;28;20384;-75
2022/04/13 06:10:17;;;;;;;17.90;13.90;;;;;;;11.88;77.48;101381.53;4995078;28;20346;-75
2022/04/13 06:12:43;;;;;;;18.23;13.10;;;;;;;11.89;78.05;101383.19;4990468;28;20494;-75
2022/04/13 06:15:10;;;;;;;17.02;13.77;;;;;;;11.92;78.06;101388.97;4997308;28;20061;-75
2022/04/13 06:17:37;;;;;;;19.15;13.60;;;;;;;11.92;77.73;101378.56;4995061;28;20120;-75
2022/04/13 06:20:04;;;;;;;17.95;13.48;;;;;;;11.98;77.14;101398.06;4990389;28;20030;-74
2022/04/13 06:22:36;;;;;;;16.85;13.40;;;;;;;12.04;78.48;101399.34;4989685;28;20046;-74
2022/04/13 06:25:02;;;;;;;19.73;13.43;;;;;;;12.05;78.88;101401.84;4992968;28;20035;-74
2022/04/13 06:27:28;;;;;;;18.67;13.52;;;;;;;12.08;78.37;101398.16;4988683;28;20045;-75
2022/04/13 06:29:53;;;;;;;18.92;14.13;;;;;;;12.18;78.31;101407.72;4988912;28;20034;-75
2022/04/13 06:32:19;;;;;;;21.50;14.30;;;;;;;12.09;78.04;101394.63;5007647;28;20137;-75
2022/04/13 06:34:44;;;;;;;20.17;14.80;;;;;;;12.16;78.46;101401.00;5027611;28;20025;-75
2022/04/13 06:37:09;;;;;;;21.83;15.27;;;;;;;12.20;78.47;101408.41;5009381;28;20030;-74
2022/04/13 06:39:35;;;;;;;18.95;15.25;;;;;;;12.25;77.73;101409.84;4989030;28;20029;-74
2022/04/13 06:42:00;;;;;;;21.48;15.35;;;;;;;12.34;78.08;101414.31;4986852;28;20491;-75
2022/04/13 06:44:27;;;;;;;22.55;17.02;;;;;;;12.31;77.98;101414.56;4989565;28;20491;-75
2022/04/13 06:46:52;;;;;;;23.92;16.20;;;;;;;12.37;77.78;101414.88;5019430;28;20372;-75
2022/04/13 06:49:18;;;;;;;20.27;17.15;;;;;;;12.37;78.42;101408.88;5007991;28;20477;-76
2022/04/13 06:51:43;;;;;;;21.42;17.98;;;;;;;12.27;78.41;101400.13;5008654;28;20030;-75
2022/04/13 06:54:09;;;;;;;23.45;17.27;;;;;;;12.30;78.58;101408.53;5009144;28;20029;-75
2022/04/13 06:56:34;;;;;;;22.33;17.52;;;;;;;12.47;77.62;101420.19;5020925;28;20033;-75
2022/04/13 06:58:59;;;;;;;21.42;18.45;;;;;;;12.49;78.29;101423.50;5028872;28;20068;-74
2022/04/13 07:01:25;;;;;;;21.73;18.85;;;;;;;12.51;78.67;101426.81;5018553;28;20544;-75
2022/04/13 07:03:51;;;;;;;21.48;18.85;;;;;;;12.51;78.64;101426.81;5012914;28;20030;-74
2022/04/13 07:06:16;;;;;;;24.40;20.67;;;;;;;12.55;79.09;101423.00;5007659;28;20261;-75
2022/04/13 07:08:42;;;;;;;25.50;21.15;;;;;;;12.57;78.64;101428.91;5029334;28;20030;-75
2022/04/13 07:11:07;;;;;;;27.38;22.25;;;;;;;12.60;79.49;101441.66;5028366;28;20029;-75
2022/04/13 07:13:33;;;;;;;25.77;21.83;;;;;;;12.68;78.48;101449.72;5025478;28;20072;-75
2022/04/13 07:15:58;;;;;;;25.52;21.90;;;;;;;12.75;79.03;101465.66;5008575;28;20029;-76
2022/04/13 07:18:23;;;;;;;26.52;22.98;;;;;;;12.90;78.63;101463.56;5007902;28;20033;-75
2022/04/13 07:20:49;;;;;;;25.48;22.88;;;;;;;12.95;79.38;101461.41;5007837;28;20026;-74
2022/04/13 07:23:14;;;;;;;27.95;23.05;;;;;;;13.05;79.18;101464.94;5008205;28;20501;-75
2022/04/13 07:25:40;;;;;;;29.90;23.70;;;;;;;13.12;79.31;101463.47;5007259;28;20026;-74
2022/04/13 07:28:05;;;;;;;29.05;25.02;;;;;;;13.15;79.09;101468.44;5007555;28;20485;-75
2022/04/13 07:30:31;;;;;;;27.33;24.17;;;;;;;13.18;78.36;101465.56;5007529;28;20033;-75
2022/04/13 07:33:01;;;;;;;27.95;23.13;;;;;;;13.23;77.73;101476.47;5008501;28;20034;-75
2022/04/13 07:35:28;;;;;;;23.27;20.33;;;;;;;13.26;77.68;101471.03;5007800;28;20025;-77
2022/04/13 07:37:53;;;;;;;20.80;18.25;;;;;;;13.34;77.19;101472.16;5023505;28;20033;-74
2022/04/13 07:40:19;;;;;;;21.13;16.50;;;;;;;13.32;77.61;101469.69;5027459;28;20533;-74
2022/04/13 07:42:44;;;;;;;21.55;17.50;;;;;;;13.33;77.69;101480.94;5014597;28;20034;-75
2022/04/13 07:45:10;;;;;;;22.33;18.00;;;;;;;13.33;77.81;101480.94;5007860;28;20410;-75
2022/04/13 07:47:36;;;;;;;22.58;18.13;;;;;;;13.45;76.99;101482.53;5007930;28;20041;-75
2022/04/13 07:50:01;;;;;;;20.95;17.63;;;;;;;13.43;77.60;101490.47;5007848;28;20030;-74
2022/04/13 07:52:27;;;;;;;20.67;18.33;;;;;;;13.54;77.36;101489.59;5006434;28;20072;-76
2022/04/13 07:54:52;;;;;;;23.58;18.48;;;;;;;13.59;77.34;101497.84;5017280;28;20065;-76
2022/04/13 07:57:17;;;;;;;24.55;19.42;;;;;;;13.64;77.27;101498.25;5027211;28;20033;-75
2022/04/13 07:59:43;;;;;;;21.90;18.45;;;;;;;13.64;76.64;101490.44;5028130;28;20157;-75
2022/04/13 08:02:09;;;;;;;20.73;17.23;;;;;;;13.70;76.28;101502.97;5027528;28;20045;-75
2022/04/13 08:04:35;;;;;;;19.17;17.13;;;;;;;13.76;76.42;101502.47;5027797;28;20084;-76
2022/04/13 08:07:00;;;;;;;20.92;16.15;;;;;;;13.87;75.59;101505.94;5026327;28;20036;-75
2022/04/13 08:09:26;;;;;;;22.65;16.25;;;;;;;13.94;75.43;101507.09;5015245;28;20034;-75
2022/04/13 08:11:52;;;;;;;20.70;16.20;;;;;;;14.09;75.56;101510.97;5007946;28;20536;-75
2022/04/13 08:14:19;;;;;;;19.98;15.45;;;;;;;14.15;75.67;101510.44;5007633;28;20026;-75
2022/04/13 08:16:44;;;;;;;17.63;15.27;;;;;;;14.27;74.75;101519.81;4988399;28;20027;-75
2022/04/13 08:19:10;;;;;;;17.90;15.30;;;;;;;14.30;74.33;101519.56;4987422;28;20030;-74
2022/04/13 08:21:37;;;;;;;18.15;14.77;;;;;;;14.34;74.15;101513.16;4988990;28;20040;-76
2022/04/13 08:24:03;;;;;;;18.48;14.82;;;;;;;14.38;74.55;101521.50;5011364;28;20025;-75
2022/04/13 08:26:28;;;;;;;15.70;13.55;;;;;;;14.48;74.45;101517.19;5025924;28;20082;-75
2022/04/13 08:28:54;;;;;;;17.10;13.30;;;;;;;14.52;73.38;101517.75;5027682;28;20125;-75
2022/04/13 08:31:19;;;;;;;15.68;13.27;;;;;;;14.57;72.84;101513.78;5027243;28;20067;-76
2022/04/13 08:33:46;;;;;;;14.60;12.98;;;;;;;14.70;73.10;101526.59;5027233;28;20029;-76
2022/04/13 08:36:12;;;;;;;16.15;12.60;;;;;;;14.77;72.01;101526.88;5025604;28;20065;-76
2022/04/13 08:38:37;;;;;;;17.55;13.23;;;;;;;14.83;71.14;101532.38;5017351;28;20072;-76
2022/04/13 08:41:13;;;;;;;12.13;9.88;;;;;;;14.93;70.54;101528.94;5007465;28;20065;-76
2022/04/13 08:43:51;;;;;;;13.15;10.93;;;;;;;14.82;70.28;101535.94;5007484;28;20037;-76
2022/04/13 08:46:25;;;;;;;14.30;10.48;;;;;;;14.91;70.70;101533.47;5007433;28;20021;-76
2022/04/13 08:48:56;;;;;;;11.52;8.38;;;;;;;15.01;69.58;101542.16;5007340;28;20363;-76
2022/04/13 08:51:24;;;;;;;10.88;8.43;;;;;;;15.11;69.72;101540.38;5006025;28;20036;-76
2022/04/13 08:54:12;;;;;;;11.88;9.27;;;;;;;15.20;70.52;101542.16;5014804;28;20038;-76
2022/04/13 08:56:39;;;;;;;9.73;7.03;;;;;;;15.31;69.21;101547.25;5001534;28;20050;-76
2022/04/13 08:59:28;;;;;;;10.80;8.15;;;;;;;15.37;68.42;101545.88;5007356;28;20465;-76
2022/04/13 09:02:00;;;;;;;8.90;6.93;;;;;;;15.54;67.26;101546.94;5005580;28;20128;-76
2022/04/13 09:04:28;;;;;;;9.00;5.30;;;;;;;15.63;66.74;101551.38;5007166;28;20038;-76
2022/04/13 09:06:57;;;;;;;6.70;3.63;;;;;;;15.64;65.69;101558.25;5012959;28;20028;-76
2022/04/13 09:09:43;;;;;;;8.68;4.40;;;;;;;15.74;66.09;101564.28;5026912;28;20152;-76
2022/04/13 09:12:10;;;;;;;5.20;2.90;;;;;;;15.71;65.60;101548.03;5018454;28;20030;-73
2022/04/13 09:14:38;;;;;;;6.63;2.72;;;;;;;15.71;63.57;101564.56;5007406;28;20060;-76
2022/04/13 09:17:04;;;;;;;5.90;2.88;;;;;;;15.80;63.57;101568.13;5006798;28;20044;-76
2022/04/13 09:19:32;;;;;;;10.43;3.63;;;;;;;15.75;63.83;101565.94;5006812;28;20133;-75
2022/04/13 09:21:59;;;;;;;6.63;3.38;;;;;;;15.76;63.87;101562.34;5026246;28;20506;-77
2022/04/13 09:24:27;;;;;;;8.20;3.97;;;;;;;15.77;63.87;101566.63;5025557;28;20032;-76
2022/04/13 09:26:53;;;;;;;6.68;4.00;;;;;;;15.81;63.33;101559.31;5026786;28;20064;-77
2022/04/13 09:29:18;;;;;;;7.70;4.18;;;;;;;15.85;63.77;101556.28;5018068;28;20085;-76
2022/04/13 09:31:44;;;;;;;6.07;3.60;;;;;;;15.93;64.15;101548.53;5029134;28;20466;-77
2022/04/13 09:34:10;;;;;;;7.93;4.38;;;;;;;15.97;63.82;101569.19;5010469;28;20030;-76
2022/04/13 09:36:35;;;;;;;8.63;5.20;;;;;;;16.03;64.86;101566.00;5012722;28;20024;-76
2022/04/13 09:39:01;;;;;;;8.60;5.00;;;;;;;16.28;65.69;101573.22;5020799;28;20385;-76
2022/04/13 09:41:37;;;;;;;9.63;5.95;;;;;;;16.29;64.27;101582.72;5030838;28;20037;-76
2022/04/13 09:44:18;;;;;;;10.07;6.25;;;;;;;16.36;64.55;101589.03;5030662;28;20527;-76
2022/04/13 09:46:44;;;;;;;8.98;6.88;;;;;;;16.34;64.97;101593.56;5028860;28;20087;-76
2022/04/13 09:49:14;;;;;;;9.02;6.43;;;;;;;16.30;64.21;101589.63;5021250;28;20512;-75
2022/04/13 09:51:47;;;;;;;10.10;6.93;;;;;;;16.38;65.03;101600.19;5010973;28;20457;-75
2022/04/13 09:54:13;;;;;;;11.18;7.55;;;;;;;16.29;65.26;101601.06;5010181;28;20033;-75
2022/04/13 09:56:44;;;;;;;9.82;7.50;;;;;;;16.23;64.76;101596.41;5024153;28;20531;-75
2022/04/13 09:59:10;;;;;;;11.68;7.03;;;;;;;16.18;65.30;101601.22;5030382;28;20032;-75
2022/04/13 10:01:36;;;;;;;9.80;6.85;;;;;;;16.16;65.22;101605.75;5027666;28;20497;-75
2022/04/13 10:04:03;;;;;;;9.27;7.18;;;;;;;16.15;65.91;101604.13;5030282;28;20037;-75
2022/04/13 10:06:30;;;;;;;10.32;7.32;;;;;;;16.11;65.49;101600.94;5030128;28;20072;-76
2022/04/13 10:09:01;;;;;;;11.27;6.80;;;;;;;16.07;65.23;101604.03;5029050;28;20124;-75
2022/04/13 10:11:27;;;;;;;9.98;6.88;;;;;;;16.12;65.47;101617.50;5029983;28;20507;-74
2022/04/13 10:13:52;;;;;;;9.48;6.25;;;;;;;16.15;64.95;101604.94;5028923;28;20576;-75
2022/04/13 10:16:17;;;;;;;11.15;6.50;;;;;;;16.18;65.21;101603.84;5013618;28;20041;-75
2022/04/13 10:18:56;;;;;;;11.82;6.30;;;;;;;16.15;65.73;101606.75;5010118;28;20072;-75
2022/04/13 10:21:42;;;;;;;8.40;6.00;;;;;;;16.17;65.30;101596.94;5009781;28;20034;-75
2022/04/13 10:24:24;;;;;;;10.38;6.70;;;;;;;16.14;65.01;101599.84;5009991;28;20037;-75
2022/04/13 10:26:59;;;;;;;9.88;6.95;;;;;;;16.08;65.99;101613.50;5008404;28;20037;-75
2022/04/13 10:29:26;;;;;;;10.90;7.78;;;;;;;16.04;65.79;101617.38;5002896;28;20038;-75
2022/04/13 10:32:08;;;;;;;10.98;7.85;;;;;;;16.09;66.01;101623.00;5004433;28;20125;-75
2022/04/13 10:34:41;;;;;;;11.07;9.30;;;;;;;16.05;65.60;101619.00;5006520;28;20033;-75
2022/04/13 10:37:09;;;;;;;13.25;9.30;;;;;;;15.95;65.56;101623.47;5007223;28;20036;-75
2022/04/13 10:39:35;;;;;;;13.30;9.65;;;;;;;15.93;66.09;101620.97;5006112;28;20042;-74
2022/04/13 10:42:05;;;;;;;11.75;9.18;;;;;;;15.89;66.25;101623.06;5006582;28;20482;-75
2022/04/13 10:44:34;;;;;;;12.45;8.95;;;;;;;15.91;66.68;101617.69;5006525;28;20122;-75
2022/04/13 10:47:04;;;;;;;11.75;9.13;;;;;;;15.87;67.38;101622.34;5007911;28;20478;-75
2022/04/13 10:49:43;;;;;;;13.50;9.23;;;;;;;15.95;67.52;101629.53;5008253;28;20034;-78
2022/04/13 10:52:17;;;;;;;17.38;9.05;;;;;;;15.98;67.49;101638.88;5009187;28;20034;-75
2022/04/13 10:54:48;;;;;;;10.30;7.95;;;;;;;15.90;67.67;101634.34;5009191;28;20030;-74
2022/04/13 10:57:19;;;;;;;11.32;8.25;;;;;;;15.99;67.10;101625.63;5009080;28;20034;-74
2022/04/13 10:59:52;;;;;;;20.42;17.23;;;;;;;16.06;66.92;101641.63;5009624;28;20479;-74
2022/04/13 11:02:29;;;;;;;17.50;13.65;;;;;;;16.02;67.02;101635.00;5008380;28;20406;-74
2022/04/13 11:04:56;;;;;;;13.73;9.43;;;;;;;16.14;67.01;101633.88;4992419;28;20026;-75
2022/04/13 11:07:24;;;;;;;12.25;7.72;;;;;;;16.01;66.35;101639.44;5008909;28;20037;-75
2022/04/13 11:09:54;;;;;;;13.13;9.80;;;;;;;16.11;66.45;101649.84;5009413;28;20141;-75
2022/04/13 11:12:19;;;;;;;22.35;18.75;;;;;;;16.12;66.18;101646.28;5008759;28;20032;-74
2022/04/13 11:14:49;;;;;;;14.02;8.35;;;;;;;16.01;65.04;101643.84;5009370;28;20358;-74